Time;durP1;ratioP1;P1;durP2;ratioP2;P2;SDS_P1;SDS_P2;PMS_P1;PMS_P2;Temp;Humidity;BMP_temperature;BMP_pressure;BME280_temperature;BME280_humidity;BME280_pressure;Samples;Min_cycle;Max_cycle;Signal;HPM_P1;HPM_P2
2022/11/19 00:01:12;;;;;;;1.60;1.50;;;;;;;21.47;56.16;96493.09;4997771;28;20199;-93
2022/11/19 00:03:39;;;;;;;2.13;1.70;;;;;;;21.05;56.19;96427.78;4985462;28;20245;-89
2022/11/19 00:06:08;;;;;;;2.83;1.60;;;;;;;19.93;56.17;96236.38;4971909;28;20506;-86
2022/11/19 00:08:35;;;;;;;1.70;1.60;;;;;;;21.15;56.44;96444.94;4969061;28;20214;-90
2022/11/19 00:14:09;;;;;;;2.03;1.57;;;;;;;21.46;56.47;96498.16;5003765;28;20229;-89
2022/11/19 00:16:35;;;;;;;1.73;1.63;;;;;;;21.07;56.18;96433.75;4986259;28;20703;-90
2022/11/19 00:19:02;;;;;;;1.50;1.40;;;;;;;20.87;55.82;96381.53;4961913;28;20204;-85
2022/11/19 00:21:28;;;;;;;1.70;1.60;;;;;;;21.05;56.25;96412.47;5002855;28;20210;-89
2022/11/19 00:23:55;;;;;;;1.97;1.70;;;;;;;20.99;56.27;96409.81;4982409;28;20561;-88
2022/11/19 00:26:21;;;;;;;1.73;1.63;;;;;;;20.30;56.22;96283.69;4984156;28;20301;-91
2022/11/19 00:28:48;;;;;;;1.90;1.80;;;;;;;21.07;56.31;96415.88;4982708;28;20211;-89
2022/11/19 00:31:15;;;;;;;1.60;1.50;;;;;;;20.83;56.05;96375.50;4969189;28;20307;-89
2022/11/19 00:33:42;;;;;;;1.67;1.57;;;;;;;20.72;56.16;96358.34;4963644;28;20207;-89
2022/11/19 00:36:10;;;;;;;1.53;1.43;;;;;;;20.88;56.20;96383.22;4980642;28;20302;-91
2022/11/19 00:38:36;;;;;;;1.70;1.60;;;;;;;21.03;56.14;96409.88;5002599;28;20285;-90
2022/11/19 00:41:03;;;;;;;1.60;1.50;;;;;;;20.83;56.25;96372.09;4987892;28;20285;-89
2022/11/19 00:43:48;;;;;;;1.90;1.80;;;;;;;20.72;56.27;96373.66;4985172;28;20202;-89
2022/11/19 00:46:28;;;;;;;1.60;1.50;;;;;;;21.12;56.27;96432.13;4982596;28;20607;-89
2022/11/19 00:48:56;;;;;;;1.63;1.53;;;;;;;20.83;56.22;96400.16;4977996;28;20206;-90
2022/11/19 00:51:25;;;;;;;1.50;1.40;;;;;;;21.09;56.27;96426.97;4981876;28;20225;-90
2022/11/19 00:53:51;;;;;;;1.70;1.60;;;;;;;20.74;56.16;96389.81;4982633;28;20281;-90
2022/11/19 00:56:19;;;;;;;1.57;1.47;;;;;;;20.14;56.29;96262.22;4967993;28;20577;-89
2022/11/19 00:58:45;;;;;;;1.90;1.70;;;;;;;20.97;56.25;96398.72;4958061;28;20203;-91
2022/11/19 01:01:12;;;;;;;1.70;1.60;;;;;;;21.06;56.22;96426.94;4998877;28;20195;-89
2022/11/19 01:03:39;;;;;;;1.60;1.50;;;;;;;21.29;56.23;96459.59;4997467;28;20664;-89
2022/11/19 01:06:06;;;;;;;1.60;1.50;;;;;;;21.17;56.30;96444.13;4998869;28;20218;-89
2022/11/19 01:08:33;;;;;;;1.43;1.30;;;;;;;21.11;56.36;96438.09;4972218;28;20210;-89
2022/11/19 01:11:05;;;;;;;1.50;1.40;;;;;;;20.76;56.39;96376.28;4980973;28;20223;-91
2022/11/19 01:13:34;;;;;;;1.57;1.47;;;;;;;20.66;56.21;96353.97;4984130;28;20206;-89
2022/11/19 01:16:04;;;;;;;1.60;1.50;;;;;;;21.05;56.23;96418.41;4968346;28;20246;-89
2022/11/19 01:18:30;;;;;;;1.80;1.67;;;;;;;20.80;56.10;96375.47;4986200;28;20632;-89
2022/11/19 01:20:57;;;;;;;1.97;1.50;;;;;;;21.29;56.28;96472.38;4967006;28;20214;-90
2022/11/19 01:23:24;;;;;;;1.50;1.40;;;;;;;20.08;56.12;96259.53;5001258;28;20202;-90
2022/11/19 01:25:50;;;;;;;1.50;1.40;;;;;;;20.72;56.13;96358.34;4990585;28;20261;-89
2022/11/19 01:28:17;;;;;;;1.40;1.30;;;;;;;20.84;56.07;96376.38;4970307;28;20245;-89
2022/11/19 01:30:43;;;;;;;1.53;1.43;;;;;;;20.58;55.98;96327.50;4982907;28;20335;-91
2022/11/19 01:33:10;;;;;;;1.60;1.50;;;;;;;20.84;56.40;96367.00;4954496;28;20620;-89
2022/11/19 01:35:37;;;;;;;2.50;1.67;;;;;;;21.00;56.05;96416.63;4967861;28;20223;-89
2022/11/19 01:38:03;;;;;;;1.80;1.70;;;;;;;20.92;56.42;96387.53;4983261;28;20210;-89
2022/11/19 01:40:30;;;;;;;1.60;1.50;;;;;;;21.46;56.29;96493.06;4962288;28;20691;-91
2022/11/19 01:42:57;;;;;;;1.40;1.30;;;;;;;19.72;56.38;96191.00;4988822;28;20209;-90
2022/11/19 01:45:25;;;;;;;1.57;1.47;;;;;;;21.46;56.22;96485.38;4969381;28;20207;-90
2022/11/19 01:47:52;;;;;;;1.73;1.40;;;;;;;21.19;56.40;96450.13;4995798;28;20236;-89
2022/11/19 01:50:18;;;;;;;1.77;1.67;;;;;;;20.18;56.15;96279.28;4962820;28;20570;-89
2022/11/19 01:52:45;;;;;;;1.73;1.60;;;;;;;21.38;56.18;96489.56;4979750;28;20237;-90
2022/11/19 01:55:11;;;;;;;1.80;1.50;;;;;;;21.14;56.33;96454.28;4982591;28;20210;-89
2022/11/19 01:57:38;;;;;;;1.70;1.60;;;;;;;21.13;56.34;96455.16;4982392;28;20218;-89
2022/11/19 02:00:05;;;;;;;1.30;1.20;;;;;;;20.50;56.37;96336.75;4982590;28;20203;-89
2022/11/19 02:02:32;;;;;;;1.57;1.47;;;;;;;21.45;56.29;96502.44;4973437;28;20199;-89
2022/11/19 02:05:00;;;;;;;1.57;1.47;;;;;;;21.23;56.39;96462.09;4965187;28;20664;-89
2022/11/19 02:07:28;;;;;;;1.70;1.60;;;;;;;21.17;55.91;96462.00;4980838;28;20726;-89
2022/11/19 02:09:55;;;;;;;1.40;1.30;;;;;;;20.88;56.24;96404.53;4966419;28;20250;-89
2022/11/19 02:12:42;;;;;;;1.47;1.37;;;;;;;21.46;56.34;96509.25;4967844;28;20232;-89
2022/11/19 02:15:38;;;;;;;1.60;1.50;;;;;;;21.46;56.24;96501.59;4991153;28;20281;-89
2022/11/19 02:18:18;;;;;;;1.60;1.50;;;;;;;21.46;56.03;96509.25;4978579;28;20694;-90
2022/11/19 02:20:47;;;;;;;1.40;1.30;;;;;;;21.46;56.29;96504.16;5000115;28;20299;-89
2022/11/19 02:23:35;;;;;;;1.50;1.40;;;;;;;21.14;56.16;96467.06;5010070;28;20634;-91
2022/11/19 02:26:22;;;;;;;1.43;1.33;;;;;;;21.35;56.00;96489.53;4977789;28;20684;-87
2022/11/19 02:29:26;;;;;;;1.67;1.40;;;;;;;21.47;55.96;96510.13;5003243;28;20199;-89
2022/11/19 02:32:10;;;;;;;1.50;1.40;;;;;;;21.45;56.08;96497.34;4993142;28;20218;-89
2022/11/19 02:34:45;;;;;;;1.60;1.50;;;;;;;21.45;56.39;96496.47;4995254;28;20209;-89
2022/11/19 02:37:48;;;;;;;1.50;1.40;;;;;;;21.20;56.24;96456.94;4978319;28;20301;-92
2022/11/19 02:40:15;;;;;;;1.43;1.33;;;;;;;21.45;56.15;96504.13;4983682;28;20248;-89
2022/11/19 02:42:49;;;;;;;1.70;1.60;;;;;;;20.75;56.34;96384.75;5000480;28;20199;-89
2022/11/19 02:45:21;;;;;;;1.23;1.20;;;;;;;21.45;56.23;96504.13;4985063;28;20206;-89
2022/11/19 02:47:52;;;;;;;1.33;1.23;;;;;;;20.10;56.15;96285.91;4970424;28;20607;-89
2022/11/19 02:50:25;;;;;;;1.50;1.40;;;;;;;21.06;55.98;96443.13;4963541;28;20203;-90
2022/11/19 02:52:52;;;;;;;1.40;1.30;;;;;;;21.25;56.38;96485.97;4988547;28;20310;-86
2022/11/19 02:55:20;;;;;;;1.60;1.50;;;;;;;20.67;56.12;96382.94;4988333;28;20206;-89
2022/11/19 02:58:08;;;;;;;1.63;1.53;;;;;;;20.71;56.29;96392.34;4992501;28;20377;-90
2022/11/19 03:06:25;;;;;;;1.40;1.30;;;;;;;20.63;56.20;96386.28;4983763;28;20221;-90
2022/11/19 03:08:52;;;;;;;1.63;1.50;;;;;;;21.23;56.05;96513.19;4981905;28;20289;-89
2022/11/19 03:11:26;;;;;;;1.40;1.30;;;;;;;20.82;56.00;96414.66;4970726;28;20322;-89
2022/11/19 03:17:25;;;;;;;1.50;1.40;;;;;;;21.31;56.01;96508.19;4969105;28;20701;-85
2022/11/19 03:20:00;;;;;;;1.73;1.40;;;;;;;21.45;56.04;96532.25;4961403;28;20206;-89
2022/11/19 03:22:30;;;;;;;1.50;1.40;;;;;;;20.92;56.09;96444.59;5002881;28;20225;-90
2022/11/19 03:25:04;;;;;;;1.47;1.20;;;;;;;21.43;56.07;96533.91;4983759;28;20214;-90
2022/11/19 03:27:39;;;;;;;1.37;1.27;;;;;;;20.30;56.03;96340.69;4972806;28;20249;-89
2022/11/19 03:30:06;;;;;;;1.40;1.30;;;;;;;20.74;56.16;96410.25;4976412;28;20201;-89
2022/11/19 03:33:01;;;;;;;1.50;1.40;;;;;;;21.44;56.07;96544.16;4986942;28;20218;-91
2022/11/19 03:35:29;;;;;;;1.63;1.53;;;;;;;21.25;56.10;96519.19;4998139;28;20286;-89
2022/11/19 03:37:57;;;;;;;1.40;1.30;;;;;;;21.45;56.04;96552.69;4967477;28;20227;-89
2022/11/19 03:40:24;;;;;;;1.53;1.27;;;;;;;20.97;55.99;96465.13;4990379;28;20203;-89
2022/11/19 03:42:51;;;;;;;1.40;1.30;;;;;;;21.44;56.01;96549.28;4968337;28;20580;-88
2022/11/19 03:45:20;;;;;;;1.50;1.40;;;;;;;20.80;56.07;96435.88;4962026;28;20199;-89
2022/11/19 03:47:47;;;;;;;1.53;1.43;;;;;;;21.11;56.03;96494.28;4973324;28;20700;-92
2022/11/19 03:50:28;;;;;;;1.10;1.10;;;;;;;21.44;56.25;96554.38;4970083;28;20667;-89
2022/11/19 03:52:56;;;;;;;1.30;1.20;;;;;;;20.94;56.16;96465.91;4992070;28;20811;-86
2022/11/19 03:55:34;;;;;;;1.50;1.40;;;;;;;21.15;55.99;96516.47;4974678;28;20596;-89
2022/11/19 03:58:05;;;;;;;1.30;1.20;;;;;;;20.88;56.12;96470.94;4969880;28;20282;-90
2022/11/19 04:00:32;;;;;;;1.33;1.23;;;;;;;21.28;56.04;96537.13;4974121;28;20286;-89
2022/11/19 04:02:59;;;;;;;1.43;1.33;;;;;;;20.89;56.29;96464.09;4967627;28;20404;-89
2022/11/19 04:05:25;;;;;;;1.07;1.07;;;;;;;21.28;55.89;96549.91;4961892;28;20200;-89
2022/11/19 04:07:52;;;;;;;1.50;1.40;;;;;;;21.29;55.93;96551.59;4988309;28;20218;-88
2022/11/19 04:10:18;;;;;;;1.47;1.37;;;;;;;20.82;56.26;96472.50;4969929;28;20225;-89
2022/11/19 04:12:45;;;;;;;1.37;1.27;;;;;;;20.07;56.10;96348.78;4998785;28;20230;-89
2022/11/19 04:15:12;;;;;;;1.30;1.20;;;;;;;20.02;56.27;96356.34;4979762;28;20199;-90
2022/11/19 04:17:39;;;;;;;1.50;1.20;;;;;;;21.04;56.27;96531.66;4963443;28;20312;-89
2022/11/19 04:20:08;;;;;;;1.43;1.20;;;;;;;20.53;56.09;96460.97;4971718;28;20211;-87
2022/11/19 04:22:34;;;;;;;1.30;1.20;;;;;;;19.86;56.08;96324.63;4977084;28;20234;-90
2022/11/19 04:25:01;;;;;;;1.30;1.20;;;;;;;21.22;56.18;96588.13;4987549;28;20209;-89
2022/11/19 04:27:27;;;;;;;1.30;1.20;;;;;;;21.05;55.84;96547.84;4979508;28;20223;-89
2022/11/19 04:29:54;;;;;;;1.30;1.20;;;;;;;21.29;55.56;96579.72;4971834;28;20648;-89
2022/11/19 04:32:20;;;;;;;1.50;1.40;;;;;;;20.83;56.15;96497.22;4987127;28;20775;-91
2022/11/19 04:34:47;;;;;;;1.40;1.30;;;;;;;20.13;56.29;96397.38;4992403;28;20290;-90
2022/11/19 04:37:13;;;;;;;1.10;1.10;;;;;;;19.96;55.85;96353.72;4971792;28;20224;-89
2022/11/19 04:39:40;;;;;;;1.10;1.10;;;;;;;20.66;56.41;96484.16;4961722;28;20206;-90
2022/11/19 04:42:07;;;;;;;1.40;1.30;;;;;;;21.33;56.11;96599.41;4964574;28;20199;-88
2022/11/19 04:44:33;;;;;;;1.30;1.20;;;;;;;21.15;55.86;96573.56;4972186;28;20211;-91
2022/11/19 04:47:00;;;;;;;1.30;1.20;;;;;;;20.98;56.67;96544.31;5084925;22;20222;-87
2022/11/19 04:49:26;;;;;;;1.43;1.20;;;;;;;20.88;55.93;96534.78;4992167;28;20650;-85
2022/11/19 04:51:53;;;;;;;1.53;1.30;;;;;;;21.45;55.82;96632.81;4980705;28;20666;-84
2022/11/19 04:54:19;;;;;;;1.50;1.40;;;;;;;21.44;56.00;96630.22;4976115;28;20465;-85
2022/11/19 04:56:46;;;;;;;1.20;1.10;;;;;;;21.45;56.16;96635.38;4991905;28;20226;-85
2022/11/19 04:59:12;;;;;;;1.40;1.30;;;;;;;20.49;55.91;96465.16;4992414;28;20203;-85
2022/11/19 05:01:39;;;;;;;1.23;1.17;;;;;;;20.99;55.97;96550.31;4971869;28;20202;-84
2022/11/19 05:04:06;;;;;;;1.43;1.33;;;;;;;21.14;55.87;96579.47;4972079;28;20203;-84
2022/11/19 05:06:32;;;;;;;1.40;1.30;;;;;;;20.56;56.25;96478.91;4975004;28;20223;-84
2022/11/19 05:08:59;;;;;;;1.30;1.20;;;;;;;21.47;55.97;96631.13;4977493;28;20207;-86
2022/11/19 05:11:25;;;;;;;1.30;1.20;;;;;;;20.49;55.53;96477.09;4991398;28;20207;-85
2022/11/19 05:13:52;;;;;;;1.50;1.40;;;;;;;21.11;55.93;96576.03;4975338;28;20210;-84
2022/11/19 05:16:18;;;;;;;1.27;1.20;;;;;;;21.47;55.75;96637.94;4992911;28;20247;-85
2022/11/19 05:18:45;;;;;;;1.23;1.17;;;;;;;20.90;56.00;96545.00;4993163;28;20573;-84
2022/11/19 05:21:11;;;;;;;1.00;1.00;;;;;;;20.88;56.19;96536.44;4998819;28;20207;-87
2022/11/19 05:23:38;;;;;;;1.30;1.20;;;;;;;20.88;55.79;96539.88;4978963;28;20201;-84
2022/11/19 05:26:04;;;;;;;1.20;1.20;;;;;;;20.97;55.81;96563.03;4991981;28;20209;-85
2022/11/19 05:28:31;;;;;;;1.40;1.30;;;;;;;19.94;55.97;96403.81;4985538;28;20577;-84
2022/11/19 05:31:05;;;;;;;1.03;1.03;;;;;;;21.46;55.91;96652.41;4976420;28;20199;-87
2022/11/19 05:33:31;;;;;;;1.30;1.20;;;;;;;20.12;55.93;96428.75;4991916;28;20722;-84
2022/11/19 05:36:00;;;;;;;1.10;1.10;;;;;;;21.46;56.12;96654.09;4961513;28;20227;-84
2022/11/19 05:38:27;;;;;;;1.10;1.10;;;;;;;20.83;55.45;96543.16;4991733;28;20237;-84
2022/11/19 05:40:53;;;;;;;1.40;1.30;;;;;;;20.53;55.90;96507.78;4975727;28;20208;-85
2022/11/19 05:43:20;;;;;;;1.10;1.10;;;;;;;19.42;55.93;96301.78;4975106;28;20191;-84
2022/11/19 05:45:46;;;;;;;1.30;1.20;;;;;;;20.64;56.38;96511.41;4983908;28;20555;-82
2022/11/19 05:48:13;;;;;;;1.43;1.33;;;;;;;21.45;55.89;96652.38;4983185;28;20230;-84
2022/11/19 05:50:41;;;;;;;1.10;1.10;;;;;;;18.99;55.91;96230.44;4992054;28;20273;-85
2022/11/19 05:53:08;;;;;;;1.10;1.10;;;;;;;20.77;55.95;96541.38;4972889;28;20226;-84
2022/11/19 05:55:34;;;;;;;1.40;1.30;;;;;;;20.91;55.71;96557.81;4991883;28;20209;-85
2022/11/19 05:58:01;;;;;;;1.00;1.00;;;;;;;21.45;56.03;96653.25;4983335;28;20219;-83
2022/11/19 06:00:27;;;;;;;1.30;1.20;;;;;;;20.90;56.13;96563.72;4991508;28;20237;-86
2022/11/19 06:02:54;;;;;;;1.27;1.20;;;;;;;21.46;55.81;96659.22;4986587;28;20201;-86
2022/11/19 06:05:21;;;;;;;1.13;1.13;;;;;;;20.82;55.92;96554.22;4988649;28;20234;-85
2022/11/19 06:07:47;;;;;;;1.30;1.20;;;;;;;20.35;55.82;96487.06;4967507;28;20265;-84
2022/11/19 06:10:14;;;;;;;1.10;1.10;;;;;;;20.95;56.18;96579.16;4981269;28;20218;-84
2022/11/19 06:12:42;;;;;;;1.00;1.00;;;;;;;21.45;55.86;96671.16;4958441;28;20219;-88
2022/11/19 06:15:12;;;;;;;0.90;0.90;;;;;;;21.46;55.82;96680.53;4992399;28;20203;-87
2022/11/19 06:17:38;;;;;;;1.10;1.00;;;;;;;21.47;55.83;96689.91;4991939;28;20254;-87
2022/11/19 06:20:07;;;;;;;1.20;1.10;;;;;;;21.13;56.06;96628.00;4986857;28;20203;-88
2022/11/19 06:22:35;;;;;;;1.10;1.10;;;;;;;21.48;55.83;96686.53;4976009;28;20211;-84
2022/11/19 06:25:03;;;;;;;1.40;1.30;;;;;;;21.48;55.85;96685.66;4991484;28;20291;-84
2022/11/19 06:27:29;;;;;;;1.37;1.27;;;;;;;21.48;55.87;96683.97;4989699;28;20221;-85
2022/11/19 06:29:56;;;;;;;1.20;1.10;;;;;;;21.49;55.97;96695.03;4991153;28;20732;-84
2022/11/19 06:32:25;;;;;;;1.33;1.20;;;;;;;20.47;55.76;96511.91;4974698;28;20233;-86
2022/11/19 06:34:56;;;;;;;1.00;1.00;;;;;;;20.33;56.04;96491.25;4975825;28;20294;-87
2022/11/19 06:37:22;;;;;;;0.97;0.97;;;;;;;20.58;55.75;96534.25;4983480;28;20228;-84
2022/11/19 06:39:49;;;;;;;1.27;1.17;;;;;;;19.93;55.63;96425.03;4976386;28;20228;-86
2022/11/19 06:45:06;;;;;;;1.23;1.10;;;;;;;20.62;55.86;96542.81;4991383;28;20227;-83
2022/11/19 06:47:32;;;;;;;1.00;1.00;;;;;;;20.42;55.81;96513.50;4974510;28;20588;-85
2022/11/19 06:49:59;;;;;;;1.20;1.10;;;;;;;21.50;55.94;96700.19;4982128;28;20235;-87
2022/11/19 06:52:25;;;;;;;1.07;1.07;;;;;;;21.34;55.86;96676.91;4989992;28;20222;-86
2022/11/19 06:54:52;;;;;;;3.60;1.50;;;;;;;20.40;52.99;96513.50;4984771;28;20208;-86
2022/11/19 06:57:19;;;;;;;4.20;1.80;;;;;;;20.15;50.49;96484.97;5005940;28;20231;-86
2022/11/19 06:59:45;;;;;;;1.70;1.60;;;;;;;20.88;47.69;96619.03;4972461;28;20202;-87
2022/11/19 07:02:12;;;;;;;2.17;1.70;;;;;;;20.08;43.98;96503.50;4984239;28;20204;-87
2022/11/19 07:04:41;;;;;;;2.53;2.17;;;;;;;20.44;42.25;96555.25;4989612;28;20245;-84
2022/11/19 07:07:07;;;;;;;2.10;2.00;;;;;;;20.07;41.14;96502.63;4969940;28;20255;-86
2022/11/19 07:09:34;;;;;;;1.97;1.87;;;;;;;20.06;40.29;96512.81;4974762;28;20227;-87
2022/11/19 07:12:01;;;;;;;2.07;1.90;;;;;;;19.79;39.62;96474.91;4987068;28;20293;-85
2022/11/19 07:14:28;;;;;;;3.67;2.03;;;;;;;20.64;39.21;96630.50;4958015;28;20199;-88
2022/11/19 07:16:55;;;;;;;2.03;1.90;;;;;;;20.94;40.37;96685.56;4979057;28;20251;-89
2022/11/19 07:19:21;;;;;;;3.40;1.83;;;;;;;19.70;41.06;96474.72;4981524;28;20290;-89
2022/11/19 07:21:48;;;;;;;2.37;1.97;;;;;;;19.83;42.30;96507.28;4983626;28;20279;-85
2022/11/19 07:24:15;;;;;;;2.20;2.00;;;;;;;20.41;43.07;96604.53;4978201;28;20278;-90
2022/11/19 07:26:42;;;;;;;2.20;1.70;;;;;;;18.48;43.97;96324.41;4975554;28;20278;-88
2022/11/19 07:29:10;;;;;;;1.93;1.73;;;;;;;21.11;44.78;96731.88;4991364;28;20254;-88
2022/11/19 07:31:36;;;;;;;4.40;1.80;;;;;;;20.78;45.50;96687.81;4983715;28;20206;-86
2022/11/19 07:34:07;;;;;;;2.23;1.90;;;;;;;13.17;45.60;95383.06;4985716;28;20811;-87
2022/11/19 07:36:34;;;;;;;1.60;1.40;;;;;;;21.10;46.60;96748.03;4966719;28;20227;-89
2022/11/19 07:39:00;;;;;;;2.23;1.70;;;;;;;18.33;46.76;96274.84;4976950;28;20238;-86
2022/11/19 07:44:12;;;;;;;2.10;1.90;;;;;;;19.74;47.54;96518.16;4992589;28;20199;-87
2022/11/19 07:46:39;;;;;;;2.43;1.73;;;;;;;17.30;47.94;96099.69;4989185;28;20239;-89
2022/11/19 07:49:06;;;;;;;1.70;1.60;;;;;;;21.11;47.79;96748.06;5000842;28;20249;-86
2022/11/19 07:51:32;;;;;;;2.07;1.53;;;;;;;19.92;48.29;96550.78;5001074;28;20199;-87
2022/11/19 07:53:59;;;;;;;1.83;1.40;;;;;;;17.39;48.10;96115.16;4975060;28;20282;-88
2022/11/19 07:56:26;;;;;;;1.97;1.57;;;;;;;14.44;48.41;95709.78;4984451;28;20215;-92
2022/11/19 07:58:52;;;;;;;1.70;1.60;;;;;;;19.25;48.69;96456.78;4989121;28;20202;-86
2022/11/19 08:01:21;;;;;;;2.67;2.00;;;;;;;18.29;48.52;96265.44;4978859;28;20262;-89
2022/11/19 08:03:48;;;;;;;2.73;2.10;;;;;;;20.74;48.58;96689.41;4999222;28;20210;-89
2022/11/19 08:06:22;;;;;;;2.50;2.30;;;;;;;21.17;48.63;96760.09;4996412;28;20221;-92
2022/11/19 08:08:49;;;;;;;2.27;1.83;;;;;;;18.94;48.61;96382.22;4995936;28;20261;-90
2022/11/19 08:11:16;;;;;;;1.87;1.77;;;;;;;14.52;48.78;95619.88;4987930;28;20204;-91
2022/11/19 08:13:42;;;;;;;1.80;1.70;;;;;;;17.08;48.93;96145.69;4957648;28;20242;-91
2022/11/19 08:16:10;;;;;;;3.33;2.30;;;;;;;15.33;49.18;95845.38;4968783;28;20227;-91
2022/11/19 08:18:37;;;;;;;1.80;1.70;;;;;;;13.56;49.45;95452.25;4982624;28;20242;-88
2022/11/19 08:21:08;;;;;;;3.77;2.00;;;;;;;21.18;49.67;96762.69;4983197;28;20203;-90
2022/11/19 08:23:35;;;;;;;5.27;1.80;;;;;;;19.45;49.72;96467.44;4994102;28;20203;-87
2022/11/19 08:26:02;;;;;;;2.53;1.90;;;;;;;16.59;49.60;96086.94;4989498;28;20205;-89
2022/11/19 08:28:30;;;;;;;2.27;1.97;;;;;;;14.41;49.92;95798.13;4965321;28;20203;-90
2022/11/19 08:31:05;;;;;;;1.70;1.50;;;;;;;18.01;50.01;96277.53;4969786;28;20630;-89
2022/11/19 08:33:31;;;;;;;2.20;1.80;;;;;;;20.08;50.03;96631.91;4979807;28;20223;-89
2022/11/19 08:35:58;;;;;;;2.80;1.83;;;;;;;15.80;49.79;95833.16;4982122;28;20253;-89
2022/11/19 08:38:25;;;;;;;3.03;1.80;;;;;;;15.58;50.38;95837.66;4968320;28;20240;-89
2022/11/19 08:40:52;;;;;;;1.87;1.73;;;;;;;15.24;50.40;95748.97;4978911;28;20716;-90
2022/11/19 08:43:18;;;;;;;1.70;1.53;;;;;;;15.03;50.50;95711.34;4986396;28;20223;-89
2022/11/19 08:45:52;;;;;;;1.83;1.73;;;;;;;11.29;50.27;95062.88;4964829;28;20213;-90
2022/11/19 08:48:18;;;;;;;2.07;1.80;;;;;;;20.99;50.52;96724.81;4985569;28;20246;-89
2022/11/19 08:50:45;;;;;;;2.63;1.80;;;;;;;20.92;50.69;96722.09;4998485;28;20203;-89
2022/11/19 08:53:11;;;;;;;2.13;1.63;;;;;;;19.75;50.57;96517.31;4987316;28;20223;-89
2022/11/19 08:55:38;;;;;;;1.87;1.70;;;;;;;14.01;50.34;95532.56;4984095;28;20258;-90
2022/11/19 08:58:05;;;;;;;1.93;1.77;;;;;;;18.77;50.82;96343.69;4993535;28;20349;-90
2022/11/19 09:00:33;;;;;;;1.63;1.53;;;;;;;18.19;51.12;96255.09;4985448;28;20508;-88
2022/11/19 09:02:59;;;;;;;2.30;1.73;;;;;;;16.10;50.90;95957.19;4984068;28;20206;-88
2022/11/19 09:05:26;;;;;;;3.00;1.80;;;;;;;18.24;50.89;96257.72;4953926;28;20238;-90
2022/11/19 09:07:56;;;;;;;1.87;1.77;;;;;;;19.00;51.05;96383.22;4987680;28;20253;-93
2022/11/19 09:10:22;;;;;;;2.07;1.60;;;;;;;15.76;51.01;95891.28;4971418;28;20283;-90
2022/11/19 09:12:50;;;;;;;3.50;1.80;;;;;;;18.35;50.69;96301.19;4949540;28;20233;-88
2022/11/19 09:15:17;;;;;;;2.77;1.83;;;;;;;13.84;50.99;95483.31;4969677;28;20279;-88
2022/11/19 09:17:43;;;;;;;1.77;1.67;;;;;;;14.63;51.47;95631.09;4969094;28;20258;-92
2022/11/19 09:20:12;;;;;;;2.27;1.80;;;;;;;18.42;50.95;96364.09;4986539;28;20218;-93
2022/11/19 09:22:39;;;;;;;2.10;1.80;;;;;;;20.01;51.44;96637.69;4954745;28;20207;-89
2022/11/19 09:25:07;;;;;;;1.60;1.50;;;;;;;14.98;50.90;95700.25;4952731;28;20326;-88
2022/11/19 09:27:35;;;;;;;1.77;1.67;;;;;;;16.27;50.86;95936.53;4990543;28;20280;-91
2022/11/19 09:30:02;;;;;;;1.67;1.57;;;;;;;18.59;51.01;96376.38;4989728;28;20629;-88
2022/11/19 09:32:30;;;;;;;1.73;1.63;;;;;;;18.60;51.44;96306.88;4977641;28;20228;-91
2022/11/19 09:34:56;;;;;;;2.80;1.70;;;;;;;11.16;51.31;95118.63;4982486;28;20657;-89
2022/11/19 09:37:23;;;;;;;1.70;1.60;;;;;;;17.62;50.64;96154.63;4985427;28;20433;-89
2022/11/19 09:39:50;;;;;;;1.83;1.73;;;;;;;15.75;51.25;95903.09;4984689;28;20195;-84
2022/11/19 09:42:35;;;;;;;1.87;1.70;;;;;;;20.27;51.17;96631.47;4981159;28;20290;-91
2022/11/19 09:45:33;;;;;;;2.20;1.80;;;;;;;21.29;51.46;96804.59;4964318;28;20198;-89
2022/11/19 09:48:21;;;;;;;2.33;1.90;;;;;;;19.14;51.43;96432.78;4989727;28;20338;-88
2022/11/19 09:51:27;;;;;;;2.20;1.87;;;;;;;21.31;51.59;96789.31;4964504;28;20199;-89
2022/11/19 09:54:01;;;;;;;2.30;1.90;;;;;;;19.50;51.64;96487.06;4977107;28;20222;-89
2022/11/19 09:56:33;;;;;;;1.73;1.63;;;;;;;18.98;51.51;96400.16;4975770;28;20302;-89
2022/11/19 09:59:21;;;;;;;1.60;1.50;;;;;;;21.30;51.89;96791.03;4976974;28;20203;-88
2022/11/19 10:01:48;;;;;;;1.90;1.77;;;;;;;19.69;51.38;96513.81;4991665;28;20231;-89
2022/11/19 10:04:17;;;;;;;1.97;1.77;;;;;;;20.57;51.86;96675.47;4987808;28;20941;-89
2022/11/19 10:06:56;;;;;;;2.10;1.90;;;;;;;21.30;51.33;96785.91;4964451;28;20246;-89
2022/11/19 10:09:26;;;;;;;2.30;2.10;;;;;;;21.31;51.88;96784.19;4980949;28;20722;-89
2022/11/19 10:12:10;;;;;;;1.80;1.70;;;;;;;21.31;51.82;96785.06;4991440;28;20653;-86
2022/11/19 10:14:47;;;;;;;1.80;1.70;;;;;;;21.31;51.74;96784.19;4973040;28;20223;-87
2022/11/19 10:17:35;;;;;;;2.30;2.03;;;;;;;21.31;52.03;96776.53;4972725;28;20302;-89
2022/11/19 10:20:14;;;;;;;1.77;1.67;;;;;;;21.27;52.13;96779.88;5004244;28;20195;-87
2022/11/19 10:22:55;;;;;;;1.70;1.60;;;;;;;21.32;51.92;96780.81;4991317;28;20286;-90
2022/11/19 10:25:35;;;;;;;2.03;1.90;;;;;;;19.13;51.94;96413.22;4992915;28;20199;-89
2022/11/19 10:28:24;;;;;;;1.83;1.70;;;;;;;19.83;51.90;96526.00;4986510;28;20290;-89
2022/11/19 10:31:08;;;;;;;1.90;1.80;;;;;;;20.40;51.90;96653.00;5000762;28;20203;-87
2022/11/19 10:33:44;;;;;;;3.17;1.97;;;;;;;20.14;52.06;96621.00;4986576;28;20226;-89
2022/11/19 10:36:41;;;;;;;2.40;2.20;;;;;;;21.31;52.13;96782.50;4977146;28;20620;-89
2022/11/19 10:39:15;;;;;;;2.30;2.10;;;;;;;21.31;51.98;96776.53;4997253;28;20205;-88
2022/11/19 10:41:54;;;;;;;2.30;2.10;;;;;;;21.29;52.10;96776.50;5015992;28;20281;-87
2022/11/19 10:44:38;;;;;;;2.23;2.03;;;;;;;20.02;51.73;96559.50;5001682;28;20199;-90
2022/11/19 10:47:09;;;;;;;4.30;2.27;;;;;;;19.48;52.11;96467.50;4987304;28;20230;-88
2022/11/19 10:49:38;;;;;;;2.33;2.13;;;;;;;19.39;51.99;96447.75;4967661;28;20203;-88
2022/11/19 10:52:08;;;;;;;2.93;2.63;;;;;;;14.88;51.96;95698.31;4987990;28;20219;-89
2022/11/19 10:54:34;;;;;;;3.87;3.13;;;;;;;17.38;51.80;96125.25;4987200;28;20231;-89
2022/11/19 10:57:01;;;;;;;4.03;3.63;;;;;;;21.22;51.79;96784.91;4971180;28;20239;-90
2022/11/19 10:59:29;;;;;;;6.30;3.67;;;;;;;16.36;51.94;95953.63;4987939;28;20203;-89
2022/11/19 11:02:10;;;;;;;6.87;3.90;;;;;;;18.76;51.78;96357.25;5013106;28;20265;-86
2022/11/19 11:04:37;;;;;;;5.33;3.90;;;;;;;19.58;51.84;96490.66;4991509;28;20223;-86
2022/11/19 11:07:04;;;;;;;4.97;3.77;;;;;;;21.32;52.10;96789.31;4996702;28;20253;-87
2022/11/19 11:09:41;;;;;;;6.37;3.80;;;;;;;15.52;52.00;95807.13;5007700;28;20203;-87
2022/11/19 11:15:14;;;;;;;6.40;4.33;;;;;;;21.34;52.04;96779.13;4997430;28;20651;-86
2022/11/19 11:17:41;;;;;;;6.97;4.07;;;;;;;12.61;51.80;95334.41;5012461;28;20218;-87
2022/11/19 11:20:17;;;;;;;7.50;4.10;;;;;;;21.34;52.18;96781.69;5013594;28;20213;-89
2022/11/19 11:22:45;;;;;;;8.17;4.47;;;;;;;19.28;51.84;96436.50;5013450;28;20360;-87
2022/11/19 11:25:23;;;;;;;8.13;4.30;;;;;;;20.17;51.85;96614.28;5008870;28;20179;-85
2022/11/19 11:28:15;;;;;;;6.43;4.20;;;;;;;21.34;52.01;96781.69;4998997;28;20262;-87
2022/11/19 11:30:51;;;;;;;8.83;4.17;;;;;;;21.33;52.00;96778.28;5012239;28;20218;-87
2022/11/19 11:33:28;;;;;;;6.93;4.23;;;;;;;13.70;51.79;95468.59;5011408;28;20190;-87
2022/11/19 11:35:56;;;;;;;9.60;4.87;;;;;;;17.91;52.02;96217.13;5019467;28;20229;-90
2022/11/19 11:38:24;;;;;;;10.77;4.60;;;;;;;21.03;51.84;96713.84;4978535;28;20281;-87
2022/11/19 11:41:04;;;;;;;7.83;4.60;;;;;;;19.08;51.86;96385.94;4976916;28;20273;-90
2022/11/19 11:44:01;;;;;;;12.07;4.97;;;;;;;21.33;51.79;96762.97;4998740;28;20199;-85
2022/11/19 11:46:44;;;;;;;9.13;5.17;;;;;;;21.32;52.07;96761.22;4969760;28;20222;-85
2022/11/19 11:49:27;;;;;;;7.37;4.37;;;;;;;21.32;52.28;96761.22;5001167;28;20589;-88
2022/11/19 11:52:11;;;;;;;8.53;5.00;;;;;;;14.96;51.92;95663.13;5002691;28;20203;-81
2022/11/19 11:54:52;;;;;;;9.37;5.13;;;;;;;20.71;52.13;96647.66;4985094;28;20249;-90
2022/11/19 11:57:24;;;;;;;9.70;4.60;;;;;;;20.72;52.05;96652.78;4981003;28;20577;-89
2022/11/19 11:59:51;;;;;;;10.23;5.27;;;;;;;15.84;52.00;95826.50;4989692;28;20203;-88
2022/11/19 12:02:31;;;;;;;9.60;5.10;;;;;;;21.33;52.12;96762.09;4992514;28;20210;-88
2022/11/19 12:05:02;;;;;;;7.73;4.77;;;;;;;16.17;51.95;95878.81;4988579;28;20230;-89
2022/11/19 12:07:59;;;;;;;9.67;5.80;;;;;;;20.18;52.19;96567.50;4956262;28;20231;-92
2022/11/19 12:10:41;;;;;;;8.13;5.07;;;;;;;21.33;52.34;96759.53;4992892;28;20270;-89